createdAt,value
2023-01-31T00:01:44.126Z,7.40
2023-01-31T00:04:12.859Z,7.17
2023-01-31T00:06:42.733Z,7.70
2023-01-31T00:09:11.549Z,7.10
2023-01-31T00:11:39.332Z,7.30
2023-01-31T00:14:08.304Z,8.93
2023-01-31T00:16:36.159Z,8.73
2023-01-31T00:19:04.797Z,7.33
2023-01-31T00:21:32.655Z,7.73
2023-01-31T00:24:00.590Z,7.93
2023-01-31T00:26:30.506Z,6.80
2023-01-31T00:28:59.077Z,6.80
2023-01-31T00:31:28.564Z,7.30
2023-01-31T00:33:56.491Z,5.73
2023-01-31T00:36:27.022Z,6.50
2023-01-31T00:38:56.135Z,6.20
2023-01-31T00:41:25.082Z,6.03
2023-01-31T00:43:52.800Z,6.37
2023-01-31T00:46:20.929Z,5.90
2023-01-31T00:48:49.180Z,5.80
2023-01-31T00:51:17.138Z,6.17
2023-01-31T00:53:44.558Z,5.53
2023-01-31T00:56:14.883Z,6.80
2023-01-31T00:58:42.717Z,5.80
2023-01-31T01:01:13.625Z,6.10
2023-01-31T01:03:41.929Z,5.67
2023-01-31T01:06:10.170Z,7.53
2023-01-31T01:08:39.335Z,6.57
2023-01-31T01:11:17.339Z,7.70
2023-01-31T01:13:45.265Z,6.23
2023-01-31T01:16:15.323Z,5.80
2023-01-31T01:18:45.330Z,6.47
2023-01-31T01:21:15.283Z,6.40
2023-01-31T01:23:43.930Z,7.57
2023-01-31T01:26:22.412Z,6.80
2023-01-31T01:28:50.505Z,7.40
2023-01-31T01:31:19.568Z,6.07
2023-01-31T01:33:48.271Z,7.43
2023-01-31T01:36:17.413Z,6.30
2023-01-31T01:38:46.032Z,6.43
2023-01-31T01:41:14.379Z,5.60
2023-01-31T01:43:59.896Z,6.47
2023-01-31T01:46:33.273Z,6.10
2023-01-31T01:49:39.735Z,5.67
2023-01-31T01:52:09.311Z,5.20
2023-01-31T01:54:47.268Z,8.43
2023-01-31T01:57:17.196Z,5.70
2023-01-31T01:59:54.676Z,8.77
2023-01-31T02:02:22.288Z,6.27
2023-01-31T02:04:50.921Z,5.23
2023-01-31T02:07:18.284Z,5.47
2023-01-31T02:10:06.663Z,5.73
2023-01-31T02:12:34.829Z,5.23
2023-01-31T02:15:02.400Z,6.50
2023-01-31T02:17:30.033Z,6.23
2023-01-31T02:20:38.674Z,6.23
2023-01-31T02:23:39.021Z,5.23
2023-01-31T02:26:27.157Z,5.77
2023-01-31T02:29:09.697Z,5.20
2023-01-31T02:31:59.327Z,5.80
2023-01-31T02:34:47.309Z,6.57
2023-01-31T02:37:24.295Z,5.83
2023-01-31T02:40:18.791Z,5.33
2023-01-31T02:43:12.121Z,5.13
2023-01-31T02:45:56.666Z,5.93
2023-01-31T02:48:47.363Z,5.67
2023-01-31T02:51:25.320Z,5.77
2023-01-31T02:54:06.349Z,5.90
2023-01-31T02:56:35.761Z,5.50
2023-01-31T02:59:22.212Z,5.63
2023-01-31T03:01:59.940Z,5.80
2023-01-31T03:04:32.987Z,5.37
2023-01-31T03:07:05.013Z,6.07
2023-01-31T03:09:39.041Z,5.07
2023-01-31T03:12:22.235Z,6.70
2023-01-31T03:15:11.343Z,7.90
2023-01-31T03:17:59.577Z,5.40
2023-01-31T03:20:49.992Z,7.23
2023-01-31T03:23:20.479Z,7.70
2023-01-31T03:25:50.256Z,8.17
2023-01-31T03:28:21.663Z,6.50
2023-01-31T03:30:53.834Z,7.03
2023-01-31T03:33:27.490Z,7.50
2023-01-31T03:36:11.065Z,7.67
2023-01-31T03:38:47.934Z,7.77
2023-01-31T03:41:49.353Z,9.03
2023-01-31T03:44:22.959Z,9.20
2023-01-31T03:46:59.020Z,8.50
2023-01-31T03:49:27.215Z,8.30
2023-01-31T03:52:04.361Z,7.47
2023-01-31T03:54:35.207Z,8.40
2023-01-31T03:57:18.551Z,7.20
2023-01-31T03:59:49.195Z,8.20
2023-01-31T04:02:17.786Z,8.83
2023-01-31T04:04:49.815Z,8.10
2023-01-31T04:07:18.127Z,6.97
2023-01-31T04:09:47.237Z,8.23
2023-01-31T04:12:16.172Z,7.40
2023-01-31T04:14:43.868Z,9.07
2023-01-31T04:17:11.284Z,8.07
2023-01-31T04:19:38.650Z,7.40
2023-01-31T04:22:05.991Z,8.13
2023-01-31T04:24:33.415Z,7.47
2023-01-31T04:27:00.832Z,7.43
2023-01-31T04:29:28.262Z,8.30
2023-01-31T04:31:55.771Z,7.93
2023-01-31T04:34:23.249Z,7.30
2023-01-31T04:36:50.628Z,8.07
2023-01-31T04:39:18.035Z,8.10
2023-01-31T04:41:45.407Z,8.93
2023-01-31T04:44:12.737Z,8.20
2023-01-31T04:46:40.209Z,8.20
2023-01-31T04:49:07.721Z,8.70
2023-01-31T04:51:35.109Z,7.30
2023-01-31T04:54:02.723Z,9.10
2023-01-31T04:56:30.107Z,8.30
2023-01-31T04:58:57.640Z,7.87
2023-01-31T05:01:25.581Z,8.10
2023-01-31T05:03:53.249Z,7.90
2023-01-31T05:06:20.597Z,7.40
2023-01-31T05:08:48.599Z,9.67
2023-01-31T05:11:15.993Z,9.23
2023-01-31T05:13:44.077Z,9.17
2023-01-31T05:16:12.214Z,8.13
2023-01-31T05:18:40.069Z,8.93
2023-01-31T05:21:08.362Z,9.40
2023-01-31T05:23:36.183Z,12.50
2023-01-31T05:26:03.962Z,8.40
2023-01-31T05:28:31.365Z,9.00
2023-01-31T05:31:04.438Z,10.00
2023-01-31T05:33:33.361Z,10.83
2023-01-31T05:36:01.236Z,9.13
2023-01-31T05:38:28.218Z,9.50
2023-01-31T05:40:55.167Z,9.87
2023-01-31T05:43:22.123Z,8.93
2023-01-31T05:45:49.973Z,10.83
2023-01-31T05:48:17.027Z,11.30
2023-01-31T05:50:44.418Z,10.30
2023-01-31T05:53:11.779Z,11.27
2023-01-31T05:55:39.290Z,10.03
2023-01-31T05:58:06.489Z,10.73
2023-01-31T06:00:33.422Z,10.23
2023-01-31T06:03:00.979Z,10.50
2023-01-31T06:05:28.236Z,11.67
2023-01-31T06:07:55.504Z,10.47
2023-01-31T06:10:22.663Z,10.30
2023-01-31T06:12:49.726Z,8.60
2023-01-31T06:15:17.184Z,10.20
2023-01-31T06:17:44.127Z,10.80
2023-01-31T06:20:11.769Z,10.37
2023-01-31T06:22:38.731Z,9.37
2023-01-31T06:25:06.503Z,9.03
2023-01-31T06:27:34.362Z,9.33
2023-01-31T06:30:01.844Z,9.07
2023-01-31T06:32:28.834Z,8.70
2023-01-31T06:34:56.189Z,11.60
2023-01-31T06:37:23.222Z,10.63
2023-01-31T06:39:50.192Z,9.70
2023-01-31T06:42:17.167Z,9.70
2023-01-31T06:44:44.195Z,9.53
2023-01-31T06:47:12.922Z,8.63
2023-01-31T06:49:39.846Z,8.47
2023-01-31T06:52:06.842Z,8.90
2023-01-31T06:54:33.854Z,10.13
2023-01-31T06:57:00.798Z,7.80
2023-01-31T06:59:27.772Z,7.00
2023-01-31T07:01:54.943Z,8.23
2023-01-31T07:04:22.493Z,9.53
2023-01-31T07:06:49.484Z,6.50
2023-01-31T07:09:16.897Z,6.30
2023-01-31T07:11:44.259Z,7.73
2023-01-31T07:14:11.236Z,8.13
2023-01-31T07:16:38.577Z,6.37
2023-01-31T07:19:06.093Z,6.70
2023-01-31T07:21:33.464Z,6.73
2023-01-31T07:24:00.845Z,6.57
2023-01-31T07:26:28.275Z,8.13
2023-01-31T07:28:55.344Z,5.87
2023-01-31T07:31:22.701Z,7.23
2023-01-31T07:33:50.155Z,8.17
2023-01-31T07:36:19.931Z,7.17
2023-01-31T07:38:46.967Z,7.63
2023-01-31T07:41:13.856Z,7.70
2023-01-31T07:43:40.845Z,6.27
2023-01-31T07:46:10.399Z,5.77
2023-01-31T07:48:38.543Z,5.97
2023-01-31T07:51:06.426Z,6.53
2023-01-31T07:53:41.909Z,6.17
2023-01-31T07:56:19.754Z,6.87
2023-01-31T07:58:48.562Z,9.20
2023-01-31T08:01:43.262Z,13.47
2023-01-31T08:04:21.528Z,8.63
2023-01-31T08:06:52.044Z,9.53
2023-01-31T08:09:18.991Z,11.10
2023-01-31T08:11:46.160Z,7.30
2023-01-31T08:14:13.343Z,6.93
2023-01-31T08:16:40.341Z,8.40
2023-01-31T08:19:07.368Z,7.60
2023-01-31T08:21:34.320Z,6.93
2023-01-31T08:24:01.674Z,7.57
2023-01-31T08:26:29.385Z,6.87
2023-01-31T08:28:57.516Z,6.80
2023-01-31T08:31:26.897Z,5.83
2023-01-31T08:33:55.278Z,6.17
2023-01-31T08:36:25.369Z,5.87
2023-01-31T08:38:52.856Z,4.93
2023-01-31T08:41:22.008Z,5.97
2023-01-31T08:43:58.217Z,6.57
2023-01-31T08:46:30.634Z,5.57
2023-01-31T08:48:58.793Z,5.43
2023-01-31T08:51:26.214Z,6.17
2023-01-31T08:53:53.686Z,6.63
2023-01-31T08:56:21.594Z,6.67
2023-01-31T08:58:48.779Z,6.40
2023-01-31T09:01:19.052Z,6.80
2023-01-31T09:03:48.000Z,6.60
2023-01-31T09:06:20.947Z,5.00
2023-01-31T09:08:48.314Z,6.27
2023-01-31T09:11:18.789Z,6.40
2023-01-31T09:13:47.680Z,6.77
2023-01-31T09:16:15.212Z,6.43
2023-01-31T09:18:43.474Z,5.57
2023-01-31T09:21:15.779Z,5.87
2023-01-31T09:23:43.767Z,6.80
2023-01-31T09:26:15.032Z,8.63
2023-01-31T09:28:43.503Z,6.80
2023-01-31T09:31:13.384Z,6.33
2023-01-31T09:33:41.398Z,7.90
2023-01-31T09:36:14.339Z,6.50
2023-01-31T09:38:42.055Z,5.50
2023-01-31T09:41:35.176Z,6.50
2023-01-31T09:44:11.469Z,5.47
2023-01-31T09:46:45.416Z,6.00
2023-01-31T09:49:39.719Z,7.07
2023-01-31T09:52:07.102Z,5.00
2023-01-31T09:54:36.921Z,5.60
2023-01-31T09:57:17.243Z,8.07
2023-01-31T10:00:18.042Z,5.07
2023-01-31T10:03:28.686Z,5.10
2023-01-31T10:06:21.933Z,4.90
2023-01-31T10:08:51.674Z,3.57
2023-01-31T10:11:29.412Z,5.30
2023-01-31T10:14:28.033Z,4.57
2023-01-31T10:17:11.005Z,5.23
2023-01-31T10:19:50.745Z,4.77
2023-01-31T10:22:35.073Z,4.20
2023-01-31T10:25:21.163Z,4.53
2023-01-31T10:27:56.402Z,4.80
2023-01-31T10:30:38.839Z,6.80
2023-01-31T10:33:19.491Z,4.10
2023-01-31T10:35:47.600Z,4.60
2023-01-31T10:38:23.681Z,5.40
2023-01-31T10:41:15.418Z,4.80
2023-01-31T10:43:50.451Z,5.30
2023-01-31T10:46:17.876Z,4.70
2023-01-31T10:48:47.699Z,4.77
2023-01-31T10:51:18.587Z,6.70
2023-01-31T10:53:52.027Z,5.27
2023-01-31T10:56:38.012Z,6.10
2023-01-31T10:59:14.035Z,6.10
2023-01-31T11:01:42.186Z,5.47
2023-01-31T11:04:31.061Z,5.83
2023-01-31T11:07:00.453Z,4.53
2023-01-31T11:09:53.949Z,6.23
2023-01-31T11:12:23.453Z,6.73
2023-01-31T11:15:14.825Z,3.97
2023-01-31T11:17:43.706Z,13.00
2023-01-31T11:20:30.499Z,5.97
2023-01-31T11:23:00.331Z,6.50
2023-01-31T11:25:29.683Z,4.77
2023-01-31T11:28:26.357Z,5.27
2023-01-31T11:30:55.567Z,5.73
2023-01-31T11:33:49.098Z,7.33
2023-01-31T11:36:23.754Z,5.50
2023-01-31T11:38:51.657Z,6.50
2023-01-31T11:41:36.782Z,5.97
2023-01-31T11:44:21.486Z,5.40
2023-01-31T11:46:48.804Z,5.27
2023-01-31T11:49:42.173Z,4.90
2023-01-31T11:52:18.985Z,5.60
2023-01-31T11:54:55.790Z,6.07
2023-01-31T11:57:37.428Z,4.63
2023-01-31T12:00:22.732Z,6.03
2023-01-31T12:03:03.255Z,5.47
2023-01-31T12:05:43.667Z,5.23
2023-01-31T12:08:30.666Z,5.13
2023-01-31T12:10:58.906Z,4.80
2023-01-31T12:13:28.848Z,5.07
2023-01-31T12:16:04.397Z,4.30
2023-01-31T12:18:38.817Z,4.60
2023-01-31T12:21:23.324Z,3.70
2023-01-31T12:24:20.714Z,2.87
2023-01-31T12:26:56.544Z,3.97
2023-01-31T12:29:51.328Z,3.30
2023-01-31T12:32:48.003Z,5.43
2023-01-31T12:35:15.422Z,4.27
2023-01-31T12:37:42.718Z,4.60
2023-01-31T12:40:41.817Z,3.27
2023-01-31T12:43:43.064Z,3.23
2023-01-31T12:46:36.220Z,3.07
2023-01-31T12:49:28.237Z,2.93
2023-01-31T12:52:13.579Z,3.40
2023-01-31T12:55:07.080Z,3.80
2023-01-31T12:57:49.823Z,3.47
2023-01-31T13:00:23.366Z,3.13
2023-01-31T13:03:12.630Z,4.20
2023-01-31T13:05:45.581Z,4.60
2023-01-31T13:08:27.271Z,4.50
2023-01-31T13:11:19.773Z,3.67
2023-01-31T13:13:53.442Z,3.93
2023-01-31T13:16:29.191Z,4.20
2023-01-31T13:19:00.491Z,4.43
2023-01-31T13:21:31.614Z,3.80
2023-01-31T13:24:14.711Z,3.80
2023-01-31T13:26:49.018Z,4.60
2023-01-31T13:29:34.639Z,3.50
2023-01-31T13:32:14.409Z,2.40
2023-01-31T13:34:51.677Z,4.43
2023-01-31T13:37:21.358Z,4.77
2023-01-31T13:39:51.349Z,3.70
2023-01-31T13:42:19.107Z,2.37
2023-01-31T13:44:48.072Z,3.40
2023-01-31T13:47:25.915Z,2.73
2023-01-31T13:50:28.876Z,3.90
2023-01-31T13:52:57.507Z,2.90
2023-01-31T13:55:39.157Z,2.57
2023-01-31T13:58:16.564Z,3.03
2023-01-31T14:01:02.633Z,3.20
2023-01-31T14:03:30.073Z,2.57
2023-01-31T14:06:00.939Z,3.30
2023-01-31T14:08:46.825Z,3.33
2023-01-31T14:11:14.100Z,2.80
2023-01-31T14:13:46.633Z,3.13
2023-01-31T14:16:34.361Z,2.60
2023-01-31T14:19:02.121Z,3.17
2023-01-31T14:21:32.472Z,2.50
2023-01-31T14:24:02.030Z,2.93
2023-01-31T14:26:36.480Z,3.70
2023-01-31T14:29:14.214Z,2.83
2023-01-31T14:31:43.716Z,3.03
2023-01-31T14:34:29.784Z,3.20
2023-01-31T14:37:01.184Z,2.60
2023-01-31T14:39:46.789Z,3.80
2023-01-31T14:42:22.779Z,2.37
2023-01-31T14:45:28.957Z,2.43
2023-01-31T14:48:14.517Z,3.17
2023-01-31T14:51:14.569Z,3.00
2023-01-31T14:54:04.995Z,2.60
2023-01-31T14:56:51.955Z,2.80
2023-01-31T14:59:34.214Z,3.10
2023-01-31T15:02:18.638Z,2.30
2023-01-31T15:04:55.028Z,2.63
2023-01-31T15:07:23.185Z,3.63
2023-01-31T15:09:50.831Z,3.27
2023-01-31T15:12:53.265Z,4.57
2023-01-31T15:15:34.769Z,3.10
2023-01-31T15:18:19.220Z,3.20
2023-01-31T15:20:49.975Z,3.50
2023-01-31T15:23:26.425Z,3.00
2023-01-31T15:25:54.448Z,3.50
2023-01-31T15:28:30.991Z,2.90
2023-01-31T15:31:04.609Z,3.40
2023-01-31T15:33:38.167Z,2.80
2023-01-31T15:36:19.895Z,4.17
2023-01-31T15:38:53.440Z,2.97
2023-01-31T15:41:40.433Z,3.83
2023-01-31T15:44:22.831Z,3.20
2023-01-31T15:46:52.061Z,3.13
2023-01-31T15:49:39.746Z,2.60
2023-01-31T15:52:22.316Z,4.00
2023-01-31T15:54:56.549Z,2.77
2023-01-31T15:57:27.555Z,3.90
2023-01-31T15:59:55.291Z,2.53
2023-01-31T16:02:31.102Z,5.20
2023-01-31T16:04:58.884Z,2.63
2023-01-31T16:07:29.321Z,2.83
2023-01-31T16:09:58.282Z,4.33
2023-01-31T16:12:26.321Z,4.17
2023-01-31T16:14:59.153Z,3.17
2023-01-31T16:17:29.826Z,2.63
2023-01-31T16:19:58.273Z,3.20
2023-01-31T16:22:27.034Z,3.90
2023-01-31T16:25:00.130Z,4.00
2023-01-31T16:27:45.312Z,3.97
2023-01-31T16:30:16.911Z,3.33
2023-01-31T16:32:46.443Z,4.40
2023-01-31T16:35:28.429Z,4.50
2023-01-31T16:38:07.805Z,4.47
2023-01-31T16:40:45.069Z,5.53
2023-01-31T16:43:27.709Z,4.80
2023-01-31T16:45:56.550Z,4.40
2023-01-31T16:48:35.859Z,5.00
2023-01-31T16:51:29.327Z,4.50
2023-01-31T16:54:15.498Z,5.23
2023-01-31T16:56:44.371Z,4.87
2023-01-31T16:59:47.889Z,3.47
2023-01-31T17:02:21.322Z,4.67
2023-01-31T17:04:51.824Z,4.27
2023-01-31T17:07:28.512Z,5.40
2023-01-31T17:09:57.691Z,5.00
2023-01-31T17:12:45.859Z,5.80
2023-01-31T17:15:14.849Z,5.43
2023-01-31T17:17:42.255Z,5.27
2023-01-31T17:20:13.211Z,5.00
2023-01-31T17:22:42.252Z,4.33
2023-01-31T17:25:20.638Z,5.13
2023-01-31T17:27:48.675Z,4.87
2023-01-31T17:30:17.599Z,5.17
2023-01-31T17:32:45.067Z,5.03
2023-01-31T17:35:16.597Z,5.73
2023-01-31T17:37:43.951Z,6.30
2023-01-31T17:40:11.472Z,4.70
2023-01-31T17:42:38.775Z,6.27
2023-01-31T17:45:07.394Z,4.80
2023-01-31T17:47:34.776Z,6.43
2023-01-31T17:50:02.179Z,6.33
2023-01-31T17:52:29.516Z,5.77
2023-01-31T17:54:57.030Z,4.60
2023-01-31T17:57:24.461Z,5.40
2023-01-31T17:59:52.342Z,6.00
2023-01-31T18:02:19.805Z,5.40
2023-01-31T18:04:47.174Z,5.77
2023-01-31T18:07:16.794Z,5.70
2023-01-31T18:09:44.236Z,5.60
2023-01-31T18:12:11.615Z,6.50
2023-01-31T18:14:38.954Z,5.40
2023-01-31T18:17:06.395Z,6.40
2023-01-31T18:19:33.718Z,8.20
2023-01-31T18:22:01.114Z,7.77
2023-01-31T18:24:28.612Z,7.03
2023-01-31T18:26:57.140Z,5.60
2023-01-31T18:29:26.269Z,6.37
2023-01-31T18:31:57.827Z,6.07
2023-01-31T18:34:26.043Z,5.60
2023-01-31T18:36:53.391Z,5.97
2023-01-31T18:39:20.987Z,6.47
2023-01-31T18:41:48.445Z,5.90
2023-01-31T18:44:16.269Z,6.70
2023-01-31T18:46:43.640Z,6.80
2023-01-31T18:49:10.686Z,6.87
2023-01-31T18:51:37.732Z,7.20
2023-01-31T18:54:05.839Z,8.40
2023-01-31T18:56:32.801Z,9.77
2023-01-31T18:58:59.808Z,9.67
2023-01-31T19:01:30.975Z,12.70
2023-01-31T19:03:58.555Z,9.17
2023-01-31T19:06:28.447Z,8.10
2023-01-31T19:08:57.706Z,8.90
2023-01-31T19:11:28.588Z,10.83
2023-01-31T19:13:56.433Z,7.90
2023-01-31T19:16:27.081Z,6.73
2023-01-31T19:18:56.164Z,5.10
2023-01-31T19:21:29.412Z,4.73
2023-01-31T19:23:59.505Z,4.00
2023-01-31T19:26:27.598Z,5.10
2023-01-31T19:28:55.370Z,5.90
2023-01-31T19:31:25.525Z,5.53
2023-01-31T19:33:56.353Z,6.37
2023-01-31T19:36:26.712Z,6.63
2023-01-31T19:38:53.896Z,6.30
2023-01-31T19:41:22.422Z,5.87
2023-01-31T19:43:55.099Z,7.53
2023-01-31T19:46:24.522Z,6.40
2023-01-31T19:48:51.813Z,7.47
2023-01-31T19:51:21.776Z,6.37
2023-01-31T19:53:49.735Z,5.87
2023-01-31T19:56:17.038Z,5.43
2023-01-31T19:58:44.020Z,5.20
2023-01-31T20:01:15.978Z,5.13
2023-01-31T20:03:44.565Z,5.80
2023-01-31T20:06:14.827Z,4.90
2023-01-31T20:08:42.115Z,5.77
2023-01-31T20:11:10.193Z,5.47
2023-01-31T20:13:37.690Z,6.03
2023-01-31T20:16:06.719Z,5.60
2023-01-31T20:18:38.763Z,6.10
2023-01-31T20:21:06.782Z,6.10
2023-01-31T20:23:34.590Z,5.07
2023-01-31T20:26:03.064Z,5.90
2023-01-31T20:28:30.421Z,6.20
2023-01-31T20:31:07.249Z,6.63
2023-01-31T20:33:34.782Z,6.67
2023-01-31T20:36:05.127Z,7.57
2023-01-31T20:38:32.568Z,8.37
2023-01-31T20:41:00.175Z,7.80
2023-01-31T20:43:27.968Z,9.10
2023-01-31T20:46:03.469Z,7.43
2023-01-31T20:48:30.933Z,6.90
2023-01-31T20:50:58.758Z,6.50
2023-01-31T20:53:28.702Z,7.40
2023-01-31T20:56:05.251Z,8.37
2023-01-31T20:58:35.420Z,10.33
2023-01-31T21:01:06.062Z,9.30
2023-01-31T21:03:34.670Z,8.17
2023-01-31T21:06:02.393Z,8.53
2023-01-31T21:08:31.645Z,7.03
2023-01-31T21:11:03.320Z,6.50
2023-01-31T21:13:31.539Z,5.50
2023-01-31T21:16:04.786Z,6.40
2023-01-31T21:18:35.130Z,6.57
2023-01-31T21:21:11.061Z,8.60
2023-01-31T21:23:39.730Z,7.80
2023-01-31T21:26:09.700Z,6.23
2023-01-31T21:28:37.703Z,5.93
2023-01-31T21:31:07.820Z,5.43
2023-01-31T21:33:35.781Z,5.57
2023-01-31T21:36:09.018Z,6.70
2023-01-31T21:38:36.509Z,6.60
2023-01-31T21:41:22.841Z,6.33
2023-01-31T21:43:50.257Z,6.40
2023-01-31T21:46:18.209Z,7.03
2023-01-31T21:48:45.634Z,7.03
2023-01-31T21:51:15.110Z,7.40
2023-01-31T21:53:43.040Z,5.73
2023-01-31T21:56:13.417Z,6.87
2023-01-31T21:58:41.350Z,5.80
2023-01-31T22:01:20.694Z,6.00
2023-01-31T22:03:49.840Z,5.80
2023-01-31T22:06:19.941Z,6.17
2023-01-31T22:08:56.327Z,6.73
2023-01-31T22:11:24.352Z,4.83
2023-01-31T22:13:55.793Z,5.30
2023-01-31T22:16:23.711Z,3.63
2023-01-31T22:18:51.786Z,3.87
2023-01-31T22:21:22.507Z,4.67
2023-01-31T22:23:54.568Z,4.37
2023-01-31T22:26:39.310Z,4.97
2023-01-31T22:29:08.633Z,4.37
2023-01-31T22:31:36.621Z,4.30
2023-01-31T22:34:08.713Z,4.27
2023-01-31T22:36:36.331Z,3.27
2023-01-31T22:39:03.996Z,3.87
2023-01-31T22:41:31.791Z,4.30
2023-01-31T22:43:59.145Z,4.80
2023-01-31T22:46:28.420Z,4.27
2023-01-31T22:48:56.012Z,4.20
2023-01-31T22:51:26.267Z,4.70
2023-01-31T22:53:54.885Z,4.87
2023-01-31T22:56:24.587Z,4.07
2023-01-31T22:58:59.470Z,3.73
2023-01-31T23:01:29.538Z,3.60
2023-01-31T23:03:58.901Z,3.97
2023-01-31T23:06:27.121Z,3.47
2023-01-31T23:08:54.810Z,3.80
2023-01-31T23:11:23.530Z,5.03
2023-01-31T23:13:51.125Z,4.50
2023-01-31T23:16:21.655Z,4.87
2023-01-31T23:18:49.089Z,4.90
2023-01-31T23:21:18.309Z,4.90
2023-01-31T23:23:46.046Z,4.07
2023-01-31T23:26:14.082Z,4.70
2023-01-31T23:28:41.733Z,4.20
2023-01-31T23:31:09.254Z,4.40
2023-01-31T23:33:36.686Z,4.63
2023-01-31T23:36:04.295Z,3.97
2023-01-31T23:38:31.747Z,5.33
2023-01-31T23:40:59.154Z,5.17
2023-01-31T23:43:26.513Z,4.90
2023-01-31T23:45:53.932Z,4.87
2023-01-31T23:48:21.388Z,5.00
2023-01-31T23:50:48.687Z,4.20
2023-01-31T23:53:16.037Z,5.13
2023-01-31T23:55:43.329Z,4.47
2023-01-31T23:58:10.750Z,6.13
